sensor_id;sensor_type;location;lat;lon;timestamp;P1;durP1;ratioP1;P2;durP2;ratioP2
3959;SDS011;1994;48.640;8.894;2022-07-06T00:00:37;3.77;;;3.47;;
3959;SDS011;1994;48.640;8.894;2022-07-06T00:03:03;3.97;;;3.60;;
3959;SDS011;1994;48.640;8.894;2022-07-06T00:05:28;12.30;;;3.60;;
3959;SDS011;1994;48.640;8.894;2022-07-06T00:07:54;4.13;;;3.73;;
3959;SDS011;1994;48.640;8.894;2022-07-06T00:10:20;3.50;;;3.20;;
3959;SDS011;1994;48.640;8.894;2022-07-06T00:12:45;5.97;;;3.63;;
3959;SDS011;1994;48.640;8.894;2022-07-06T00:15:11;3.33;;;3.03;;
3959;SDS011;1994;48.640;8.894;2022-07-06T00:17:37;3.90;;;3.60;;
3959;SDS011;1994;48.640;8.894;2022-07-06T00:20:03;4.00;;;3.70;;
3959;SDS011;1994;48.640;8.894;2022-07-06T00:22:29;3.77;;;3.47;;
3959;SDS011;1994;48.640;8.894;2022-07-06T00:24:55;6.53;;;3.60;;
3959;SDS011;1994;48.640;8.894;2022-07-06T00:27:20;4.33;;;3.30;;
3959;SDS011;1994;48.640;8.894;2022-07-06T00:29:46;4.50;;;3.77;;
3959;SDS011;1994;48.640;8.894;2022-07-06T00:32:12;3.37;;;3.07;;
3959;SDS011;1994;48.640;8.894;2022-07-06T00:34:38;6.83;;;2.83;;
3959;SDS011;1994;48.640;8.894;2022-07-06T00:37:07;5.87;;;3.53;;
3959;SDS011;1994;48.640;8.894;2022-07-06T00:39:33;3.87;;;3.57;;
3959;SDS011;1994;48.640;8.894;2022-07-06T00:41:59;4.20;;;3.80;;
3959;SDS011;1994;48.640;8.894;2022-07-06T00:44:25;3.37;;;3.07;;
3959;SDS011;1994;48.640;8.894;2022-07-06T00:46:51;3.23;;;3.00;;
3959;SDS011;1994;48.640;8.894;2022-07-06T00:49:17;3.63;;;3.40;;
3959;SDS011;1994;48.640;8.894;2022-07-06T00:52:01;3.20;;;2.90;;
3959;SDS011;1994;48.640;8.894;2022-07-06T00:54:29;3.80;;;3.27;;
3959;SDS011;1994;48.640;8.894;2022-07-06T00:56:57;3.43;;;3.13;;
3959;SDS011;1994;48.640;8.894;2022-07-06T00:59:23;3.73;;;3.43;;
3959;SDS011;1994;48.640;8.894;2022-07-06T01:01:52;3.63;;;3.33;;
3959;SDS011;1994;48.640;8.894;2022-07-06T01:04:17;3.47;;;3.10;;
3959;SDS011;1994;48.640;8.894;2022-07-06T01:06:44;4.37;;;3.70;;
3959;SDS011;1994;48.640;8.894;2022-07-06T01:09:11;7.83;;;3.00;;
3959;SDS011;1994;48.640;8.894;2022-07-06T01:11:37;4.40;;;3.60;;
3959;SDS011;1994;48.640;8.894;2022-07-06T01:14:03;4.47;;;3.30;;
3959;SDS011;1994;48.640;8.894;2022-07-06T01:16:29;4.40;;;3.70;;
3959;SDS011;1994;48.640;8.894;2022-07-06T01:18:56;5.80;;;2.90;;
3959;SDS011;1994;48.640;8.894;2022-07-06T01:21:22;5.10;;;3.37;;
3959;SDS011;1994;48.640;8.894;2022-07-06T01:23:48;3.70;;;3.33;;
3959;SDS011;1994;48.640;8.894;2022-07-06T01:26:18;3.40;;;3.10;;
3959;SDS011;1994;48.640;8.894;2022-07-06T01:28:49;3.60;;;3.30;;
3959;SDS011;1994;48.640;8.894;2022-07-06T01:31:26;3.30;;;3.00;;
3959;SDS011;1994;48.640;8.894;2022-07-06T01:33:54;3.43;;;3.13;;
3959;SDS011;1994;48.640;8.894;2022-07-06T01:36:22;2.97;;;2.70;;
3959;SDS011;1994;48.640;8.894;2022-07-06T01:38:49;7.20;;;2.90;;
3959;SDS011;1994;48.640;8.894;2022-07-06T01:41:20;4.97;;;3.07;;
3959;SDS011;1994;48.640;8.894;2022-07-06T01:43:46;3.60;;;3.17;;
3959;SDS011;1994;48.640;8.894;2022-07-06T01:46:12;3.37;;;2.77;;
3959;SDS011;1994;48.640;8.894;2022-07-06T01:48:38;4.10;;;3.77;;
3959;SDS011;1994;48.640;8.894;2022-07-06T01:51:04;3.50;;;3.20;;
3959;SDS011;1994;48.640;8.894;2022-07-06T01:53:31;2.77;;;2.57;;
3959;SDS011;1994;48.640;8.894;2022-07-06T01:55:57;12.97;;;3.43;;
3959;SDS011;1994;48.640;8.894;2022-07-06T01:58:22;3.83;;;3.17;;
3959;SDS011;1994;48.640;8.894;2022-07-06T02:00:48;3.90;;;3.40;;
3959;SDS011;1994;48.640;8.894;2022-07-06T02:03:14;3.93;;;3.10;;
3959;SDS011;1994;48.640;8.894;2022-07-06T02:05:40;4.53;;;3.50;;
3959;SDS011;1994;48.640;8.894;2022-07-06T02:08:05;3.60;;;3.00;;
3959;SDS011;1994;48.640;8.894;2022-07-06T02:10:31;3.73;;;3.07;;
3959;SDS011;1994;48.640;8.894;2022-07-06T02:12:57;3.63;;;3.27;;
3959;SDS011;1994;48.640;8.894;2022-07-06T02:15:23;4.20;;;2.90;;
3959;SDS011;1994;48.640;8.894;2022-07-06T02:17:48;3.10;;;2.80;;
3959;SDS011;1994;48.640;8.894;2022-07-06T02:20:14;3.40;;;3.10;;
3959;SDS011;1994;48.640;8.894;2022-07-06T02:22:40;5.17;;;2.77;;
3959;SDS011;1994;48.640;8.894;2022-07-06T02:25:06;3.87;;;3.57;;
3959;SDS011;1994;48.640;8.894;2022-07-06T02:27:32;3.37;;;3.07;;
3959;SDS011;1994;48.640;8.894;2022-07-06T02:29:58;9.33;;;3.20;;
3959;SDS011;1994;48.640;8.894;2022-07-06T02:32:23;3.93;;;3.40;;
3959;SDS011;1994;48.640;8.894;2022-07-06T02:34:49;6.73;;;3.20;;
3959;SDS011;1994;48.640;8.894;2022-07-06T02:37:15;3.50;;;2.90;;
3959;SDS011;1994;48.640;8.894;2022-07-06T02:39:41;4.80;;;3.03;;
3959;SDS011;1994;48.640;8.894;2022-07-06T02:42:07;3.13;;;2.83;;
3959;SDS011;1994;48.640;8.894;2022-07-06T02:44:32;3.60;;;3.30;;
3959;SDS011;1994;48.640;8.894;2022-07-06T02:46:58;3.70;;;3.40;;
3959;SDS011;1994;48.640;8.894;2022-07-06T02:49:24;6.50;;;3.40;;
3959;SDS011;1994;48.640;8.894;2022-07-06T02:51:50;5.70;;;3.47;;
3959;SDS011;1994;48.640;8.894;2022-07-06T02:54:15;4.10;;;3.53;;
3959;SDS011;1994;48.640;8.894;2022-07-06T02:56:41;3.87;;;3.57;;
3959;SDS011;1994;48.640;8.894;2022-07-06T02:59:07;6.33;;;4.07;;
3959;SDS011;1994;48.640;8.894;2022-07-06T03:01:32;3.70;;;3.43;;
3959;SDS011;1994;48.640;8.894;2022-07-06T03:03:58;4.10;;;3.43;;
3959;SDS011;1994;48.640;8.894;2022-07-06T03:06:24;6.00;;;3.63;;
3959;SDS011;1994;48.640;8.894;2022-07-06T03:08:50;11.03;;;3.67;;
3959;SDS011;1994;48.640;8.894;2022-07-06T03:11:15;4.03;;;3.63;;
3959;SDS011;1994;48.640;8.894;2022-07-06T03:13:41;4.53;;;3.83;;
3959;SDS011;1994;48.640;8.894;2022-07-06T03:16:07;5.23;;;3.60;;
3959;SDS011;1994;48.640;8.894;2022-07-06T03:18:32;4.07;;;3.70;;
3959;SDS011;1994;48.640;8.894;2022-07-06T03:20:58;4.60;;;3.73;;
3959;SDS011;1994;48.640;8.894;2022-07-06T03:23:24;4.10;;;3.60;;
3959;SDS011;1994;48.640;8.894;2022-07-06T03:25:50;5.13;;;3.80;;
3959;SDS011;1994;48.640;8.894;2022-07-06T03:28:15;5.30;;;4.43;;
3959;SDS011;1994;48.640;8.894;2022-07-06T03:30:41;4.03;;;3.63;;
3959;SDS011;1994;48.640;8.894;2022-07-06T03:33:07;4.90;;;3.70;;
3959;SDS011;1994;48.640;8.894;2022-07-06T03:35:33;4.13;;;3.73;;
3959;SDS011;1994;48.640;8.894;2022-07-06T03:37:58;8.80;;;4.80;;
3959;SDS011;1994;48.640;8.894;2022-07-06T03:40:24;4.70;;;4.30;;
3959;SDS011;1994;48.640;8.894;2022-07-06T03:42:50;5.20;;;4.70;;
3959;SDS011;1994;48.640;8.894;2022-07-06T03:45:15;6.50;;;4.30;;
3959;SDS011;1994;48.640;8.894;2022-07-06T03:47:41;4.10;;;3.70;;
3959;SDS011;1994;48.640;8.894;2022-07-06T03:50:07;4.60;;;4.00;;
3959;SDS011;1994;48.640;8.894;2022-07-06T03:52:34;6.40;;;4.97;;
3959;SDS011;1994;48.640;8.894;2022-07-06T03:55:04;5.17;;;4.43;;
3959;SDS011;1994;48.640;8.894;2022-07-06T03:57:36;5.53;;;5.03;;
3959;SDS011;1994;48.640;8.894;2022-07-06T04:00:03;4.93;;;4.50;;
3959;SDS011;1994;48.640;8.894;2022-07-06T04:02:30;5.80;;;4.30;;
3959;SDS011;1994;48.640;8.894;2022-07-06T04:04:57;4.73;;;4.27;;
3959;SDS011;1994;48.640;8.894;2022-07-06T04:07:22;5.67;;;4.90;;
3959;SDS011;1994;48.640;8.894;2022-07-06T04:09:48;4.93;;;4.30;;
3959;SDS011;1994;48.640;8.894;2022-07-06T04:12:14;4.90;;;4.40;;
3959;SDS011;1994;48.640;8.894;2022-07-06T04:14:40;6.60;;;5.17;;
3959;SDS011;1994;48.640;8.894;2022-07-06T04:17:05;10.00;;;4.93;;
3959;SDS011;1994;48.640;8.894;2022-07-06T04:19:49;7.53;;;4.70;;
3959;SDS011;1994;48.640;8.894;2022-07-06T04:22:15;5.73;;;5.23;;
3959;SDS011;1994;48.640;8.894;2022-07-06T04:24:41;8.30;;;5.07;;
3959;SDS011;1994;48.640;8.894;2022-07-06T04:27:07;6.87;;;5.70;;
3959;SDS011;1994;48.640;8.894;2022-07-06T04:29:33;8.40;;;5.73;;
3959;SDS011;1994;48.640;8.894;2022-07-06T04:31:59;7.30;;;5.37;;
3959;SDS011;1994;48.640;8.894;2022-07-06T04:34:24;5.87;;;5.37;;
3959;SDS011;1994;48.640;8.894;2022-07-06T04:36:50;5.67;;;5.07;;
3959;SDS011;1994;48.640;8.894;2022-07-06T04:39:16;5.90;;;5.37;;
3959;SDS011;1994;48.640;8.894;2022-07-06T04:41:42;6.80;;;5.40;;
3959;SDS011;1994;48.640;8.894;2022-07-06T04:44:07;5.93;;;5.40;;
3959;SDS011;1994;48.640;8.894;2022-07-06T04:46:33;6.67;;;5.00;;
3959;SDS011;1994;48.640;8.894;2022-07-06T04:48:59;7.20;;;5.40;;
3959;SDS011;1994;48.640;8.894;2022-07-06T04:51:24;5.83;;;5.23;;
3959;SDS011;1994;48.640;8.894;2022-07-06T04:53:50;5.73;;;5.23;;
3959;SDS011;1994;48.640;8.894;2022-07-06T04:56:16;6.67;;;6.00;;
3959;SDS011;1994;48.640;8.894;2022-07-06T04:58:42;6.50;;;5.10;;
3959;SDS011;1994;48.640;8.894;2022-07-06T05:01:07;7.50;;;5.87;;
3959;SDS011;1994;48.640;8.894;2022-07-06T05:03:33;5.90;;;5.40;;
3959;SDS011;1994;48.640;8.894;2022-07-06T05:06:05;8.20;;;5.73;;
3959;SDS011;1994;48.640;8.894;2022-07-06T05:08:33;11.20;;;6.17;;
3959;SDS011;1994;48.640;8.894;2022-07-06T05:10:59;5.93;;;5.13;;
3959;SDS011;1994;48.640;8.894;2022-07-06T05:13:25;6.87;;;5.17;;
3959;SDS011;1994;48.640;8.894;2022-07-06T05:15:51;5.37;;;4.87;;
3959;SDS011;1994;48.640;8.894;2022-07-06T05:18:16;6.13;;;5.53;;
3959;SDS011;1994;48.640;8.894;2022-07-06T05:20:42;5.57;;;5.07;;
3959;SDS011;1994;48.640;8.894;2022-07-06T05:23:09;7.70;;;5.20;;
3959;SDS011;1994;48.640;8.894;2022-07-06T05:25:34;5.90;;;5.10;;
3959;SDS011;1994;48.640;8.894;2022-07-06T05:28:02;11.30;;;5.97;;
3959;SDS011;1994;48.640;8.894;2022-07-06T05:30:28;8.10;;;6.00;;
3959;SDS011;1994;48.640;8.894;2022-07-06T05:32:54;5.83;;;5.03;;
3959;SDS011;1994;48.640;8.894;2022-07-06T05:35:20;7.60;;;5.93;;
3959;SDS011;1994;48.640;8.894;2022-07-06T05:37:45;7.63;;;5.00;;
3959;SDS011;1994;48.640;8.894;2022-07-06T05:40:11;6.73;;;5.30;;
3959;SDS011;1994;48.640;8.894;2022-07-06T05:42:37;6.27;;;5.63;;
3959;SDS011;1994;48.640;8.894;2022-07-06T05:45:03;5.97;;;5.10;;
3959;SDS011;1994;48.640;8.894;2022-07-06T05:47:29;5.50;;;5.00;;
3959;SDS011;1994;48.640;8.894;2022-07-06T05:50:14;7.50;;;5.83;;
3959;SDS011;1994;48.640;8.894;2022-07-06T05:52:40;8.37;;;6.07;;
3959;SDS011;1994;48.640;8.894;2022-07-06T05:55:11;8.20;;;5.20;;
3959;SDS011;1994;48.640;8.894;2022-07-06T05:57:37;4.80;;;4.30;;
3959;SDS011;1994;48.640;8.894;2022-07-06T06:00:05;10.40;;;6.30;;
3959;SDS011;1994;48.640;8.894;2022-07-06T06:02:38;6.17;;;5.10;;
3959;SDS011;1994;48.640;8.894;2022-07-06T06:05:06;7.13;;;4.60;;
3959;SDS011;1994;48.640;8.894;2022-07-06T06:07:34;8.57;;;4.57;;
3959;SDS011;1994;48.640;8.894;2022-07-06T06:10:04;7.10;;;5.20;;
3959;SDS011;1994;48.640;8.894;2022-07-06T06:12:35;5.70;;;4.77;;
3959;SDS011;1994;48.640;8.894;2022-07-06T06:15:02;6.17;;;4.30;;
3959;SDS011;1994;48.640;8.894;2022-07-06T06:17:29;5.90;;;4.70;;
3959;SDS011;1994;48.640;8.894;2022-07-06T06:19:55;5.17;;;4.73;;
3959;SDS011;1994;48.640;8.894;2022-07-06T06:22:22;5.43;;;4.20;;
3959;SDS011;1994;48.640;8.894;2022-07-06T06:24:47;5.00;;;4.50;;
3959;SDS011;1994;48.640;8.894;2022-07-06T06:27:13;6.00;;;4.70;;
3959;SDS011;1994;48.640;8.894;2022-07-06T06:29:39;5.07;;;4.57;;
3959;SDS011;1994;48.640;8.894;2022-07-06T06:32:06;7.60;;;5.23;;
3959;SDS011;1994;48.640;8.894;2022-07-06T06:34:32;6.40;;;4.00;;
3959;SDS011;1994;48.640;8.894;2022-07-06T06:36:58;5.07;;;4.47;;
3959;SDS011;1994;48.640;8.894;2022-07-06T06:39:25;4.77;;;4.27;;
3959;SDS011;1994;48.640;8.894;2022-07-06T06:41:51;6.00;;;4.03;;
3959;SDS011;1994;48.640;8.894;2022-07-06T06:44:17;7.90;;;4.60;;
3959;SDS011;1994;48.640;8.894;2022-07-06T06:46:43;5.80;;;4.37;;
3959;SDS011;1994;48.640;8.894;2022-07-06T06:49:09;4.77;;;4.37;;
3959;SDS011;1994;48.640;8.894;2022-07-06T06:51:35;7.10;;;4.30;;
3959;SDS011;1994;48.640;8.894;2022-07-06T06:54:03;6.43;;;4.97;;
3959;SDS011;1994;48.640;8.894;2022-07-06T06:56:29;5.43;;;4.40;;
3959;SDS011;1994;48.640;8.894;2022-07-06T06:58:55;4.80;;;4.40;;
3959;SDS011;1994;48.640;8.894;2022-07-06T07:01:20;5.10;;;4.47;;
3959;SDS011;1994;48.640;8.894;2022-07-06T07:03:46;6.63;;;4.73;;
3959;SDS011;1994;48.640;8.894;2022-07-06T07:06:12;6.27;;;4.37;;
3959;SDS011;1994;48.640;8.894;2022-07-06T07:08:38;6.63;;;4.33;;
3959;SDS011;1994;48.640;8.894;2022-07-06T07:11:04;6.03;;;5.13;;
3959;SDS011;1994;48.640;8.894;2022-07-06T07:13:29;4.53;;;4.13;;
3959;SDS011;1994;48.640;8.894;2022-07-06T07:15:55;4.97;;;4.20;;
3959;SDS011;1994;48.640;8.894;2022-07-06T07:18:21;4.87;;;4.40;;
3959;SDS011;1994;48.640;8.894;2022-07-06T07:20:46;6.10;;;4.20;;
3959;SDS011;1994;48.640;8.894;2022-07-06T07:23:13;4.90;;;3.80;;
3959;SDS011;1994;48.640;8.894;2022-07-06T07:25:39;5.33;;;4.83;;
3959;SDS011;1994;48.640;8.894;2022-07-06T07:28:05;4.50;;;4.20;;
3959;SDS011;1994;48.640;8.894;2022-07-06T07:30:31;4.43;;;4.03;;
3959;SDS011;1994;48.640;8.894;2022-07-06T07:32:57;4.57;;;4.10;;
3959;SDS011;1994;48.640;8.894;2022-07-06T07:35:25;7.53;;;4.30;;
3959;SDS011;1994;48.640;8.894;2022-07-06T07:37:51;6.00;;;4.40;;
3959;SDS011;1994;48.640;8.894;2022-07-06T07:40:17;4.30;;;3.90;;
3959;SDS011;1994;48.640;8.894;2022-07-06T07:42:42;3.93;;;3.63;;
3959;SDS011;1994;48.640;8.894;2022-07-06T07:45:10;3.77;;;3.37;;
3959;SDS011;1994;48.640;8.894;2022-07-06T07:47:37;5.10;;;3.93;;
3959;SDS011;1994;48.640;8.894;2022-07-06T07:50:03;6.40;;;4.20;;
3959;SDS011;1994;48.640;8.894;2022-07-06T07:52:31;5.73;;;3.97;;
3959;SDS011;1994;48.640;8.894;2022-07-06T07:54:56;14.23;;;4.73;;
3959;SDS011;1994;48.640;8.894;2022-07-06T07:57:22;4.30;;;3.93;;
3959;SDS011;1994;48.640;8.894;2022-07-06T07:59:48;4.53;;;4.13;;
3959;SDS011;1994;48.640;8.894;2022-07-06T08:02:14;14.13;;;4.33;;
3959;SDS011;1994;48.640;8.894;2022-07-06T08:04:39;8.23;;;4.00;;
3959;SDS011;1994;48.640;8.894;2022-07-06T08:07:05;5.70;;;4.13;;
3959;SDS011;1994;48.640;8.894;2022-07-06T08:09:32;5.63;;;4.10;;
3959;SDS011;1994;48.640;8.894;2022-07-06T08:11:58;5.90;;;4.00;;
3959;SDS011;1994;48.640;8.894;2022-07-06T08:14:24;11.00;;;4.30;;
3959;SDS011;1994;48.640;8.894;2022-07-06T08:16:51;5.90;;;4.07;;
3959;SDS011;1994;48.640;8.894;2022-07-06T08:19:16;4.43;;;4.03;;
3959;SDS011;1994;48.640;8.894;2022-07-06T08:21:42;5.10;;;3.83;;
3959;SDS011;1994;48.640;8.894;2022-07-06T08:24:08;6.37;;;4.20;;
3959;SDS011;1994;48.640;8.894;2022-07-06T08:26:34;5.70;;;3.90;;
3959;SDS011;1994;48.640;8.894;2022-07-06T08:29:00;4.77;;;4.03;;
3959;SDS011;1994;48.640;8.894;2022-07-06T08:31:26;6.93;;;4.43;;
3959;SDS011;1994;48.640;8.894;2022-07-06T08:33:53;3.90;;;3.60;;
3959;SDS011;1994;48.640;8.894;2022-07-06T08:36:22;3.80;;;3.40;;
3959;SDS011;1994;48.640;8.894;2022-07-06T08:38:49;3.97;;;3.57;;
3959;SDS011;1994;48.640;8.894;2022-07-06T08:41:15;4.70;;;4.00;;
3959;SDS011;1994;48.640;8.894;2022-07-06T08:43:41;6.77;;;3.60;;
3959;SDS011;1994;48.640;8.894;2022-07-06T08:46:08;11.10;;;3.67;;
3959;SDS011;1994;48.640;8.894;2022-07-06T08:48:35;4.40;;;4.00;;
3959;SDS011;1994;48.640;8.894;2022-07-06T08:51:04;7.77;;;3.50;;
3959;SDS011;1994;48.640;8.894;2022-07-06T08:53:30;8.20;;;4.00;;
3959;SDS011;1994;48.640;8.894;2022-07-06T08:55:56;9.07;;;4.10;;
3959;SDS011;1994;48.640;8.894;2022-07-06T08:58:25;7.63;;;3.60;;
3959;SDS011;1994;48.640;8.894;2022-07-06T09:00:55;6.67;;;4.03;;
3959;SDS011;1994;48.640;8.894;2022-07-06T09:03:23;11.67;;;3.70;;
3959;SDS011;1994;48.640;8.894;2022-07-06T09:05:49;46.63;;;4.83;;
3959;SDS011;1994;48.640;8.894;2022-07-06T09:08:17;6.20;;;3.63;;
3959;SDS011;1994;48.640;8.894;2022-07-06T09:10:44;6.00;;;3.50;;
3959;SDS011;1994;48.640;8.894;2022-07-06T09:13:10;4.30;;;3.70;;
3959;SDS011;1994;48.640;8.894;2022-07-06T09:15:36;3.53;;;3.10;;
3959;SDS011;1994;48.640;8.894;2022-07-06T09:18:06;3.93;;;3.63;;
3959;SDS011;1994;48.640;8.894;2022-07-06T09:20:33;6.10;;;3.50;;
3959;SDS011;1994;48.640;8.894;2022-07-06T09:23:00;5.17;;;4.10;;
3959;SDS011;1994;48.640;8.894;2022-07-06T09:25:28;5.00;;;4.60;;
3959;SDS011;1994;48.640;8.894;2022-07-06T09:27:55;3.80;;;3.33;;
3959;SDS011;1994;48.640;8.894;2022-07-06T09:30:24;13.73;;;3.67;;
3959;SDS011;1994;48.640;8.894;2022-07-06T09:32:52;4.30;;;3.90;;
3959;SDS011;1994;48.640;8.894;2022-07-06T09:37:59;7.90;;;3.80;;
3959;SDS011;1994;48.640;8.894;2022-07-06T09:40:39;7.40;;;3.87;;
3959;SDS011;1994;48.640;8.894;2022-07-06T09:45:34;3.73;;;3.27;;
3959;SDS011;1994;48.640;8.894;2022-07-06T09:48:05;4.13;;;3.83;;
3959;SDS011;1994;48.640;8.894;2022-07-06T09:50:41;3.80;;;3.50;;
3959;SDS011;1994;48.640;8.894;2022-07-06T09:53:12;4.10;;;3.60;;
3959;SDS011;1994;48.640;8.894;2022-07-06T09:55:38;4.50;;;4.10;;
3959;SDS011;1994;48.640;8.894;2022-07-06T09:58:12;3.97;;;3.67;;
3959;SDS011;1994;48.640;8.894;2022-07-06T10:00:38;4.00;;;3.70;;
3959;SDS011;1994;48.640;8.894;2022-07-06T10:03:04;6.67;;;4.00;;
3959;SDS011;1994;48.640;8.894;2022-07-06T10:05:31;3.40;;;3.13;;
3959;SDS011;1994;48.640;8.894;2022-07-06T10:07:58;8.33;;;4.37;;
3959;SDS011;1994;48.640;8.894;2022-07-06T10:10:26;4.07;;;3.70;;
3959;SDS011;1994;48.640;8.894;2022-07-06T10:12:54;5.20;;;4.37;;
3959;SDS011;1994;48.640;8.894;2022-07-06T10:15:25;13.07;;;9.40;;
3959;SDS011;1994;48.640;8.894;2022-07-06T10:17:53;4.77;;;3.90;;
3959;SDS011;1994;48.640;8.894;2022-07-06T10:20:21;9.20;;;3.80;;
3959;SDS011;1994;48.640;8.894;2022-07-06T10:22:47;5.70;;;3.87;;
3959;SDS011;1994;48.640;8.894;2022-07-06T10:25:15;6.53;;;3.60;;
3959;SDS011;1994;48.640;8.894;2022-07-06T10:27:42;5.47;;;4.50;;
3959;SDS011;1994;48.640;8.894;2022-07-06T10:30:11;4.97;;;4.57;;
3959;SDS011;1994;48.640;8.894;2022-07-06T10:32:38;4.10;;;3.37;;
3959;SDS011;1994;48.640;8.894;2022-07-06T10:35:06;8.00;;;4.10;;
3959;SDS011;1994;48.640;8.894;2022-07-06T10:37:33;4.37;;;3.97;;
3959;SDS011;1994;48.640;8.894;2022-07-06T10:39:59;6.10;;;3.90;;
3959;SDS011;1994;48.640;8.894;2022-07-06T10:42:47;3.93;;;3.63;;
3959;SDS011;1994;48.640;8.894;2022-07-06T10:45:21;4.60;;;4.20;;
3959;SDS011;1994;48.640;8.894;2022-07-06T10:50:37;7.67;;;3.90;;
3959;SDS011;1994;48.640;8.894;2022-07-06T10:53:16;4.90;;;4.40;;
3959;SDS011;1994;48.640;8.894;2022-07-06T10:55:56;4.93;;;4.30;;
3959;SDS011;1994;48.640;8.894;2022-07-06T11:01:13;4.40;;;3.73;;
3959;SDS011;1994;48.640;8.894;2022-07-06T11:03:50;3.80;;;3.47;;
3959;SDS011;1994;48.640;8.894;2022-07-06T11:06:34;5.13;;;4.63;;
3959;SDS011;1994;48.640;8.894;2022-07-06T11:09:05;5.80;;;4.43;;
3959;SDS011;1994;48.640;8.894;2022-07-06T11:14:03;8.50;;;3.93;;
3959;SDS011;1994;48.640;8.894;2022-07-06T11:19:17;3.90;;;3.60;;
3959;SDS011;1994;48.640;8.894;2022-07-06T11:24:27;4.17;;;3.53;;
3959;SDS011;1994;48.640;8.894;2022-07-06T11:26:55;10.63;;;4.37;;
3959;SDS011;1994;48.640;8.894;2022-07-06T11:29:24;12.77;;;3.47;;
3959;SDS011;1994;48.640;8.894;2022-07-06T11:31:53;5.30;;;4.23;;
3959;SDS011;1994;48.640;8.894;2022-07-06T11:34:26;7.00;;;4.13;;
3959;SDS011;1994;48.640;8.894;2022-07-06T11:36:59;4.43;;;4.03;;
3959;SDS011;1994;48.640;8.894;2022-07-06T11:39:30;8.73;;;3.73;;
3959;SDS011;1994;48.640;8.894;2022-07-06T11:41:58;4.43;;;4.03;;
3959;SDS011;1994;48.640;8.894;2022-07-06T11:44:34;5.80;;;4.47;;
3959;SDS011;1994;48.640;8.894;2022-07-06T11:47:01;4.80;;;4.33;;
3959;SDS011;1994;48.640;8.894;2022-07-06T11:49:31;8.20;;;4.90;;
3959;SDS011;1994;48.640;8.894;2022-07-06T11:52:05;5.63;;;3.90;;
3959;SDS011;1994;48.640;8.894;2022-07-06T11:54:40;4.40;;;4.00;;
3959;SDS011;1994;48.640;8.894;2022-07-06T11:57:07;5.27;;;4.63;;
3959;SDS011;1994;48.640;8.894;2022-07-06T11:59:36;4.80;;;3.77;;
3959;SDS011;1994;48.640;8.894;2022-07-06T12:02:05;4.57;;;4.13;;
3959;SDS011;1994;48.640;8.894;2022-07-06T12:04:37;13.50;;;4.13;;
3959;SDS011;1994;48.640;8.894;2022-07-06T12:07:11;7.40;;;4.53;;
3959;SDS011;1994;48.640;8.894;2022-07-06T12:09:40;5.20;;;4.10;;
3959;SDS011;1994;48.640;8.894;2022-07-06T12:12:08;4.60;;;4.20;;
3959;SDS011;1994;48.640;8.894;2022-07-06T12:14:36;3.70;;;3.40;;
3959;SDS011;1994;48.640;8.894;2022-07-06T12:17:07;6.03;;;3.93;;
3959;SDS011;1994;48.640;8.894;2022-07-06T12:19:40;7.77;;;4.13;;
3959;SDS011;1994;48.640;8.894;2022-07-06T12:22:07;4.20;;;3.80;;
3959;SDS011;1994;48.640;8.894;2022-07-06T12:24:34;3.70;;;3.40;;
3959;SDS011;1994;48.640;8.894;2022-07-06T12:27:09;4.33;;;3.90;;
3959;SDS011;1994;48.640;8.894;2022-07-06T12:29:41;3.73;;;3.43;;
3959;SDS011;1994;48.640;8.894;2022-07-06T12:32:13;5.13;;;3.60;;
3959;SDS011;1994;48.640;8.894;2022-07-06T12:34:47;4.00;;;3.20;;
3959;SDS011;1994;48.640;8.894;2022-07-06T12:37:26;4.00;;;3.60;;
3959;SDS011;1994;48.640;8.894;2022-07-06T12:39:52;4.23;;;3.80;;
3959;SDS011;1994;48.640;8.894;2022-07-06T12:42:18;3.23;;;2.97;;
3959;SDS011;1994;48.640;8.894;2022-07-06T12:44:46;4.13;;;3.73;;
3959;SDS011;1994;48.640;8.894;2022-07-06T12:47:16;5.43;;;3.80;;
3959;SDS011;1994;48.640;8.894;2022-07-06T12:49:49;9.33;;;4.57;;
3959;SDS011;1994;48.640;8.894;2022-07-06T12:52:30;6.63;;;5.13;;
3959;SDS011;1994;48.640;8.894;2022-07-06T12:54:59;4.23;;;3.70;;
3959;SDS011;1994;48.640;8.894;2022-07-06T12:57:26;12.70;;;4.17;;
3959;SDS011;1994;48.640;8.894;2022-07-06T13:02:19;6.97;;;5.20;;
3959;SDS011;1994;48.640;8.894;2022-07-06T13:07:38;4.63;;;3.90;;
3959;SDS011;1994;48.640;8.894;2022-07-06T13:10:11;4.53;;;4.13;;
3959;SDS011;1994;48.640;8.894;2022-07-06T13:12:38;4.63;;;4.23;;
3959;SDS011;1994;48.640;8.894;2022-07-06T13:15:06;4.93;;;3.77;;
3959;SDS011;1994;48.640;8.894;2022-07-06T13:17:33;5.93;;;3.93;;
3959;SDS011;1994;48.640;8.894;2022-07-06T13:20:00;5.90;;;3.40;;
3959;SDS011;1994;48.640;8.894;2022-07-06T13:22:26;5.63;;;4.00;;
3959;SDS011;1994;48.640;8.894;2022-07-06T13:24:51;3.77;;;3.47;;
3959;SDS011;1994;48.640;8.894;2022-07-06T13:27:17;4.10;;;3.70;;
3959;SDS011;1994;48.640;8.894;2022-07-06T13:29:43;4.40;;;3.60;;
3959;SDS011;1994;48.640;8.894;2022-07-06T13:32:09;4.73;;;3.83;;
3959;SDS011;1994;48.640;8.894;2022-07-06T13:34:34;7.03;;;3.90;;
3959;SDS011;1994;48.640;8.894;2022-07-06T13:37:01;3.30;;;3.10;;
3959;SDS011;1994;48.640;8.894;2022-07-06T13:39:28;3.77;;;3.20;;
3959;SDS011;1994;48.640;8.894;2022-07-06T13:41:54;3.90;;;3.60;;
3959;SDS011;1994;48.640;8.894;2022-07-06T13:44:20;4.23;;;3.60;;
3959;SDS011;1994;48.640;8.894;2022-07-06T13:46:46;3.70;;;3.40;;
3959;SDS011;1994;48.640;8.894;2022-07-06T13:49:12;6.27;;;3.43;;
3959;SDS011;1994;48.640;8.894;2022-07-06T13:51:38;4.63;;;3.53;;
3959;SDS011;1994;48.640;8.894;2022-07-06T13:54:04;7.40;;;3.10;;
3959;SDS011;1994;48.640;8.894;2022-07-06T13:56:31;3.40;;;3.20;;
3959;SDS011;1994;48.640;8.894;2022-07-06T13:58:56;7.77;;;3.77;;
3959;SDS011;1994;48.640;8.894;2022-07-06T14:01:22;3.57;;;3.27;;
3959;SDS011;1994;48.640;8.894;2022-07-06T14:03:48;4.37;;;4.07;;
3959;SDS011;1994;48.640;8.894;2022-07-06T14:06:15;3.30;;;3.10;;
3959;SDS011;1994;48.640;8.894;2022-07-06T14:08:41;3.37;;;3.10;;
3959;SDS011;1994;48.640;8.894;2022-07-06T14:11:08;6.00;;;3.40;;
3959;SDS011;1994;48.640;8.894;2022-07-06T14:13:34;5.50;;;3.67;;
3959;SDS011;1994;48.640;8.894;2022-07-06T14:16:01;4.00;;;3.23;;
3959;SDS011;1994;48.640;8.894;2022-07-06T14:18:28;3.27;;;3.07;;
3959;SDS011;1994;48.640;8.894;2022-07-06T14:20:54;4.97;;;3.10;;
3959;SDS011;1994;48.640;8.894;2022-07-06T14:23:21;4.07;;;3.17;;
3959;SDS011;1994;48.640;8.894;2022-07-06T14:25:47;6.40;;;3.60;;
3959;SDS011;1994;48.640;8.894;2022-07-06T14:28:15;4.43;;;3.40;;
3959;SDS011;1994;48.640;8.894;2022-07-06T14:30:42;4.77;;;2.83;;
3959;SDS011;1994;48.640;8.894;2022-07-06T14:33:09;4.67;;;3.83;;
3959;SDS011;1994;48.640;8.894;2022-07-06T14:35:38;3.20;;;2.90;;
3959;SDS011;1994;48.640;8.894;2022-07-06T14:38:18;4.87;;;3.50;;
3959;SDS011;1994;48.640;8.894;2022-07-06T14:40:44;6.30;;;3.53;;
3959;SDS011;1994;48.640;8.894;2022-07-06T14:43:10;3.80;;;3.47;;
3959;SDS011;1994;48.640;8.894;2022-07-06T14:45:36;3.40;;;3.20;;
3959;SDS011;1994;48.640;8.894;2022-07-06T14:48:03;3.70;;;2.70;;
3959;SDS011;1994;48.640;8.894;2022-07-06T14:50:30;3.83;;;3.53;;
3959;SDS011;1994;48.640;8.894;2022-07-06T14:52:56;4.07;;;3.23;;
3959;SDS011;1994;48.640;8.894;2022-07-06T14:55:22;3.43;;;3.13;;
3959;SDS011;1994;48.640;8.894;2022-07-06T14:57:48;3.10;;;2.90;;
3959;SDS011;1994;48.640;8.894;2022-07-06T15:00:14;3.03;;;2.80;;
3959;SDS011;1994;48.640;8.894;2022-07-06T15:02:41;4.30;;;3.83;;
3959;SDS011;1994;48.640;8.894;2022-07-06T15:05:08;3.80;;;3.10;;
3959;SDS011;1994;48.640;8.894;2022-07-06T15:07:35;4.13;;;3.73;;
3959;SDS011;1994;48.640;8.894;2022-07-06T15:10:02;3.63;;;3.33;;
3959;SDS011;1994;48.640;8.894;2022-07-06T15:12:29;4.17;;;3.73;;
3959;SDS011;1994;48.640;8.894;2022-07-06T15:14:55;5.20;;;3.67;;
3959;SDS011;1994;48.640;8.894;2022-07-06T15:17:21;3.17;;;2.97;;
3959;SDS011;1994;48.640;8.894;2022-07-06T15:19:47;4.20;;;3.03;;
3959;SDS011;1994;48.640;8.894;2022-07-06T15:22:13;2.90;;;2.70;;
3959;SDS011;1994;48.640;8.894;2022-07-06T15:24:39;3.63;;;2.67;;
3959;SDS011;1994;48.640;8.894;2022-07-06T15:27:05;3.33;;;2.90;;
3959;SDS011;1994;48.640;8.894;2022-07-06T15:29:32;3.00;;;2.80;;
3959;SDS011;1994;48.640;8.894;2022-07-06T15:31:58;2.90;;;2.70;;
3959;SDS011;1994;48.640;8.894;2022-07-06T15:34:24;5.07;;;2.93;;
3959;SDS011;1994;48.640;8.894;2022-07-06T15:36:50;3.43;;;2.60;;
3959;SDS011;1994;48.640;8.894;2022-07-06T15:39:17;2.90;;;2.70;;